Overview Statistics Trail Chart Weather Telemetry Raw packets
 

This is the latest recevied weather packets stored in our database for station/object KE5QKR. If no packets are shown the sender has not sent any weather packets the latest 10 day(s).

<< 23 24 25 26 27 28 29 >>
Time Temp. Humidity Pressure Rain* Wind** Luminosity Snow
1777817233 19.44° C 59% 1020.9 hPa 0 mm - 451 W/m² -
1777816930 19.44° C 59% 1020.7 hPa 0 mm - 435 W/m² -
1777816627 19.44° C 63% 1020.9 hPa 0 mm - 418 W/m² -
1777816324 19.44° C 62% 1020.9 hPa 0 mm - 401 W/m² -
1777816021 18.89° C 64% 1020.8 hPa 0 mm - 384 W/m² -
1777815719 18.89° C 64% 1020.8 hPa 0 mm - 365 W/m² -
1777815416 18.33° C 69% 1020.9 hPa 0 mm - 346 W/m² -
1777815113 17.78° C 69% 1020.9 hPa 0 mm - 329 W/m² -
1777814809 18.33° C 71% 1020.6 hPa 0 mm - 310 W/m² -
1777814506 17.22° C 74% 1020.9 hPa 0 mm - 292 W/m² -
1777814203 17.22° C 74% 1020.6 hPa 0 mm - 269 W/m² -
1777813900 16.11° C 79% 1020.6 hPa 0 mm - 238 W/m² -
1777813597 16.11° C 79% 1020.9 hPa 0 mm - 192 W/m² -
1777813295 15° C 83% 1020.6 hPa 0 mm - 144 W/m² -
1777812992 13.33° C 91% 1020.8 hPa 0 mm - 139 W/m² -
1777812690 12.78° C 97% 1020.6 hPa 0 mm - 117 W/m² -
1777812386 12.22° C 99% 1020.7 hPa 0 mm - 99 W/m² -
1777812085 11.11° C 99% 1020.5 hPa 0 mm - 65 W/m² -
1777811783 10.56° C 99% 1020.5 hPa 0 mm - 40 W/m² -
1777811479 10.56° C 99% 1020.4 hPa 0 mm - 39 W/m² -
1777811175 10° C 99% 1020.4 hPa 0 mm - 36 W/m² -
1777810873 10° C 99% 1020.4 hPa 0 mm - 36 W/m² -
1777810569 10° C 99% 1020.4 hPa 0 mm - 38 W/m² -
1777810266 9.44° C 99% 1020.5 hPa 0 mm - 42 W/m² -
1777809962 8.89° C 99% 1020.4 hPa 0 mm - 38 W/m² -

* Rain latest hour (hover to see other rain measurements)
** Current wind speed in m/s (hover to see current wind gust speed)